This is the latest recevied weather packets stored in our database for station/object IW4EMA-3. If no packets are shown the sender has not sent any weather packets the latest 10 day(s).
| Time | Temp. | Humidity | Pressure | Rain* | Wind** | Luminosity | Snow |
|---|---|---|---|---|---|---|---|
| 1777730130 | 23.89° C | 35% | 1022 hPa | 0 mm | - | 470 W/m² | - |
| 1777726531 | 24.44° C | 34% | 1022.7 hPa | 0 mm | - | 583 W/m² | - |
| 1777722930 | 22.78° C | 34% | 1023.5 hPa | 0 mm | - | 653 W/m² | - |
| 1777719330 | 24.44° C | 33% | 1024.2 hPa | 0 mm | - | 671 W/m² | - |
| 1777718131 | 23.33° C | 35% | 1024.5 hPa | 0 mm | - | 668 W/m² | - |
| 1777713923 | 22.78° C | 38% | 1025.3 hPa | 0 mm | - | 605 W/m² | - |
| 1777711523 | 21.67° C | 41% | 1025.5 hPa | 0 mm | - | 541 W/m² | - |
| 1777710931 | 21.11° C | 41% | 1025.5 hPa | 0 mm | - | 524 W/m² | - |
| 1777709731 | 20.56° C | 44% | 1025.5 hPa | 0 mm | - | 481 W/m² | - |
| 1777706852 | 18.33° C | 52% | 1025.8 hPa | 0 mm | - | 369 W/m² | - |
| 1777700004 | 12.78° C | 65% | 1026 hPa | 0 mm | - | 104 W/m² | - |
| 1777699587 | 12.22° C | 65% | 1026 hPa | 0 mm | - | 92 W/m² | - |
| 1777693107 | 8.89° C | 74% | 1025.9 hPa | 0 mm | - | 0 W/m² | - |
| 1777690340 | 8.89° C | 72% | 1025.8 hPa | 0 mm | - | 0 W/m² | - |
| 1777689443 | 8.89° C | 71% | 1025.9 hPa | 0 mm | - | 0 W/m² | - |
| 1777683683 | 10° C | 67% | 1025.9 hPa | 0 mm | - | 0 W/m² | - |
| 1777681892 | 10.56° C | 65% | 1026.1 hPa | 0 mm | - | 0 W/m² | - |
| 1777681284 | 10.56° C | 65% | 1025.9 hPa | 0 mm | - | 0 W/m² | - |
| 1777678884 | 12.22° C | 57% | 1026.1 hPa | 0 mm | - | 0 W/m² | - |
| 1777676503 | 11.67° C | 56% | 1026.2 hPa | 0 mm | - | 0 W/m² | - |
| 1777674085 | 12.78° C | 55% | 1026 hPa | 0 mm | - | 0 W/m² | - |
| 1777672906 | 12.78° C | 51% | 1025.9 hPa | 0 mm | - | 0 W/m² | - |
| 1777671091 | 12.78° C | 50% | 1025.8 hPa | 0 mm | - | 0 W/m² | - |
| 1777665685 | 15° C | 46% | 1025.3 hPa | 0 mm | - | 0 W/m² | - |
| 1777665092 | 15° C | 44% | 1025.3 hPa | 0 mm | - | 0 W/m² | - |
* Rain latest 24 hours (hover to see other rain measurements)
** Current wind speed in m/s (hover to see current wind gust speed)